sensor_id;sensor_type;location;lat;lon;timestamp;pressure;altitude;pressure_sealevel;temperature;humidity
9257;BME280;4665;51.368;6.782;2023-05-14T00:00:59;101577.38;;;12.26;100.00
9257;BME280;4665;51.368;6.782;2023-05-14T00:03:25;101570.78;;;12.20;100.00
9257;BME280;4665;51.368;6.782;2023-05-14T00:05:50;101572.47;;;12.21;100.00
9257;BME280;4665;51.368;6.782;2023-05-14T00:08:16;101572.63;;;12.20;100.00
9257;BME280;4665;51.368;6.782;2023-05-14T00:10:41;101568.31;;;12.09;100.00
9257;BME280;4665;51.368;6.782;2023-05-14T00:13:07;101565.06;;;12.06;100.00
9257;BME280;4665;51.368;6.782;2023-05-14T00:15:32;101554.97;;;11.99;100.00
9257;BME280;4665;51.368;6.782;2023-05-14T00:17:58;101570.00;;;12.00;100.00
9257;BME280;4665;51.368;6.782;2023-05-14T00:20:23;101565.09;;;11.96;100.00
9257;BME280;4665;51.368;6.782;2023-05-14T00:22:49;101565.66;;;11.90;100.00
9257;BME280;4665;51.368;6.782;2023-05-14T00:25:14;101565.09;;;11.86;100.00
9257;BME280;4665;51.368;6.782;2023-05-14T00:27:40;101568.06;;;11.73;100.00
9257;BME280;4665;51.368;6.782;2023-05-14T00:30:05;101569.50;;;11.68;100.00
9257;BME280;4665;51.368;6.782;2023-05-14T00:32:32;101569.03;;;11.63;100.00
9257;BME280;4665;51.368;6.782;2023-05-14T00:34:57;101560.34;;;11.51;100.00
9257;BME280;4665;51.368;6.782;2023-05-14T00:37:23;101551.94;;;11.46;100.00
9257;BME280;4665;51.368;6.782;2023-05-14T00:39:48;101560.66;;;11.48;100.00
9257;BME280;4665;51.368;6.782;2023-05-14T00:42:14;101544.34;;;11.41;100.00
9257;BME280;4665;51.368;6.782;2023-05-14T00:44:39;101547.19;;;11.40;100.00
9257;BME280;4665;51.368;6.782;2023-05-14T00:47:05;101542.94;;;11.37;100.00
9257;BME280;4665;51.368;6.782;2023-05-14T00:49:31;101534.53;;;11.32;100.00
9257;BME280;4665;51.368;6.782;2023-05-14T00:51:57;101526.00;;;11.28;100.00
9257;BME280;4665;51.368;6.782;2023-05-14T00:54:24;101528.66;;;11.28;100.00
9257;BME280;4665;51.368;6.782;2023-05-14T00:56:50;101535.94;;;11.26;100.00
9257;BME280;4665;51.368;6.782;2023-05-14T00:59:15;101533.00;;;11.29;100.00
9257;BME280;4665;51.368;6.782;2023-05-14T01:01:41;101523.72;;;11.33;100.00
9257;BME280;4665;51.368;6.782;2023-05-14T01:04:08;101523.03;;;11.31;100.00
9257;BME280;4665;51.368;6.782;2023-05-14T01:09:28;101530.03;;;11.23;100.00
9257;BME280;4665;51.368;6.782;2023-05-14T01:12:04;101538.22;;;11.21;100.00
9257;BME280;4665;51.368;6.782;2023-05-14T01:14:34;101535.97;;;11.16;100.00
9257;BME280;4665;51.368;6.782;2023-05-14T01:17:03;101530.88;;;11.13;100.00
9257;BME280;4665;51.368;6.782;2023-05-14T01:19:39;101530.03;;;11.13;100.00
9257;BME280;4665;51.368;6.782;2023-05-14T01:22:06;101530.03;;;11.13;100.00
9257;BME280;4665;51.368;6.782;2023-05-14T01:24:32;101528.50;;;11.10;100.00
9257;BME280;4665;51.368;6.782;2023-05-14T01:27:24;101525.13;;;10.99;100.00
9257;BME280;4665;51.368;6.782;2023-05-14T01:32:55;101518.81;;;11.00;100.00
9257;BME280;4665;51.368;6.782;2023-05-14T01:35:26;101521.63;;;10.98;100.00
9257;BME280;4665;51.368;6.782;2023-05-14T01:37:54;101519.38;;;10.93;100.00
9257;BME280;4665;51.368;6.782;2023-05-14T01:40:21;101523.84;;;10.93;100.00
9257;BME280;4665;51.368;6.782;2023-05-14T01:42:48;101520.06;;;10.86;100.00
9257;BME280;4665;51.368;6.782;2023-05-14T01:45:16;101519.63;;;10.81;100.00
9257;BME280;4665;51.368;6.782;2023-05-14T01:47:41;101519.63;;;10.81;100.00
9257;BME280;4665;51.368;6.782;2023-05-14T01:50:07;101509.38;;;10.76;100.00
9257;BME280;4665;51.368;6.782;2023-05-14T01:52:33;101507.84;;;10.73;100.00
9257;BME280;4665;51.368;6.782;2023-05-14T01:54:58;101520.75;;;10.78;100.00
9257;BME280;4665;51.368;6.782;2023-05-14T01:57:24;101521.88;;;10.76;100.00
9257;BME280;4665;51.368;6.782;2023-05-14T01:59:50;101517.66;;;10.73;100.00
9257;BME280;4665;51.368;6.782;2023-05-14T02:02:15;101514.88;;;10.74;100.00
9257;BME280;4665;51.368;6.782;2023-05-14T02:04:40;101516.53;;;10.76;100.00
9257;BME280;4665;51.368;6.782;2023-05-14T02:07:06;101516.66;;;10.74;100.00
9257;BME280;4665;51.368;6.782;2023-05-14T02:09:31;101509.50;;;10.65;100.00
9257;BME280;4665;51.368;6.782;2023-05-14T02:11:57;101507.53;;;10.57;100.00
9257;BME280;4665;51.368;6.782;2023-05-14T02:14:22;101506.94;;;10.53;100.00
9257;BME280;4665;51.368;6.782;2023-05-14T02:16:48;101495.03;;;10.48;100.00
9257;BME280;4665;51.368;6.782;2023-05-14T02:19:15;101496.84;;;10.47;100.00
9257;BME280;4665;51.368;6.782;2023-05-14T02:21:40;101498.53;;;10.48;100.00
9257;BME280;4665;51.368;6.782;2023-05-14T02:24:06;101501.19;;;10.48;100.00
9257;BME280;4665;51.368;6.782;2023-05-14T02:26:31;101505.41;;;10.51;100.00
9257;BME280;4665;51.368;6.782;2023-05-14T02:28:57;101499.66;;;10.46;100.00
9257;BME280;4665;51.368;6.782;2023-05-14T02:31:22;101509.19;;;10.48;100.00
9257;BME280;4665;51.368;6.782;2023-05-14T02:33:48;101507.78;;;10.44;100.00
9257;BME280;4665;51.368;6.782;2023-05-14T02:36:13;101503.56;;;10.42;100.00
9257;BME280;4665;51.368;6.782;2023-05-14T02:38:38;101503.00;;;10.38;100.00
9257;BME280;4665;51.368;6.782;2023-05-14T02:41:04;101489.03;;;10.25;100.00
9257;BME280;4665;51.368;6.782;2023-05-14T02:43:29;101499.69;;;10.25;100.00
9257;BME280;4665;51.368;6.782;2023-05-14T02:45:55;101498.97;;;10.23;100.00
9257;BME280;4665;51.368;6.782;2023-05-14T02:48:20;101490.56;;;10.18;100.00
9257;BME280;4665;51.368;6.782;2023-05-14T02:50:46;101512.84;;;10.17;100.00
9257;BME280;4665;51.368;6.782;2023-05-14T02:53:12;101514.66;;;10.16;100.00
9257;BME280;4665;51.368;6.782;2023-05-14T02:55:38;101502.03;;;10.08;100.00
9257;BME280;4665;51.368;6.782;2023-05-14T02:58:03;101501.19;;;10.08;100.00
9257;BME280;4665;51.368;6.782;2023-05-14T03:00:29;101509.56;;;10.03;100.00
9257;BME280;4665;51.368;6.782;2023-05-14T03:02:54;101518.34;;;9.94;100.00
9257;BME280;4665;51.368;6.782;2023-05-14T03:05:20;101506.41;;;9.88;100.00
9257;BME280;4665;51.368;6.782;2023-05-14T03:07:45;101519.13;;;9.85;100.00
9257;BME280;4665;51.368;6.782;2023-05-14T03:10:11;101508.06;;;9.80;100.00
9257;BME280;4665;51.368;6.782;2023-05-14T03:12:36;101509.00;;;9.79;100.00
9257;BME280;4665;51.368;6.782;2023-05-14T03:15:02;101511.66;;;9.79;100.00
9257;BME280;4665;51.368;6.782;2023-05-14T03:17:28;101510.56;;;9.81;100.00
9257;BME280;4665;51.368;6.782;2023-05-14T03:19:53;101507.34;;;9.78;100.00
9257;BME280;4665;51.368;6.782;2023-05-14T03:22:18;101510.00;;;9.78;100.00
9257;BME280;4665;51.368;6.782;2023-05-14T03:24:44;101505.91;;;9.74;100.00
9257;BME280;4665;51.368;6.782;2023-05-14T03:27:09;101504.88;;;9.65;100.00
9257;BME280;4665;51.368;6.782;2023-05-14T03:29:35;101514.69;;;9.64;100.00
9257;BME280;4665;51.368;6.782;2023-05-14T03:32:00;101498.38;;;9.58;100.00
9257;BME280;4665;51.368;6.782;2023-05-14T03:34:28;101506.19;;;9.50;100.00
9257;BME280;4665;51.368;6.782;2023-05-14T03:36:54;101498.22;;;9.50;100.00
9257;BME280;4665;51.368;6.782;2023-05-14T03:39:19;101506.03;;;9.51;100.00
9257;BME280;4665;51.368;6.782;2023-05-14T03:41:46;101493.47;;;9.53;100.00
9257;BME280;4665;51.368;6.782;2023-05-14T03:44:11;101502.28;;;9.54;100.00
9257;BME280;4665;51.368;6.782;2023-05-14T03:46:37;101491.91;;;9.51;100.00
9257;BME280;4665;51.368;6.782;2023-05-14T03:49:02;101493.00;;;9.48;100.00
9257;BME280;4665;51.368;6.782;2023-05-14T03:51:28;101504.09;;;9.53;100.00
9257;BME280;4665;51.368;6.782;2023-05-14T03:53:54;101488.91;;;9.44;100.00
9257;BME280;4665;51.368;6.782;2023-05-14T03:56:19;101485.81;;;9.39;100.00
9257;BME280;4665;51.368;6.782;2023-05-14T03:58:45;101490.16;;;9.40;100.00
9257;BME280;4665;51.368;6.782;2023-05-14T04:01:10;101494.91;;;9.36;100.00
9257;BME280;4665;51.368;6.782;2023-05-14T04:03:36;101489.25;;;9.30;100.00
9257;BME280;4665;51.368;6.782;2023-05-14T04:06:01;101488.06;;;9.22;100.00
9257;BME280;4665;51.368;6.782;2023-05-14T04:08:27;101487.81;;;9.25;100.00
9257;BME280;4665;51.368;6.782;2023-05-14T04:10:52;101492.56;;;9.22;100.00
9257;BME280;4665;51.368;6.782;2023-05-14T04:13:18;101492.56;;;9.22;100.00
9257;BME280;4665;51.368;6.782;2023-05-14T04:15:43;101498.97;;;9.19;100.00
9257;BME280;4665;51.368;6.782;2023-05-14T04:18:09;101492.50;;;9.12;100.00
9257;BME280;4665;51.368;6.782;2023-05-14T04:20:35;101499.75;;;9.10;100.00
9257;BME280;4665;51.368;6.782;2023-05-14T04:23:01;101494.66;;;9.07;100.00
9257;BME280;4665;51.368;6.782;2023-05-14T04:25:26;101486.22;;;9.02;100.00
9257;BME280;4665;51.368;6.782;2023-05-14T04:27:52;101480.06;;;9.01;100.00
9257;BME280;4665;51.368;6.782;2023-05-14T04:30:17;101480.28;;;9.10;100.00
9257;BME280;4665;51.368;6.782;2023-05-14T04:32:42;101475.56;;;9.13;100.00
9257;BME280;4665;51.368;6.782;2023-05-14T04:35:08;101480.22;;;9.21;100.00
9257;BME280;4665;51.368;6.782;2023-05-14T04:37:34;101480.81;;;9.24;100.00
9257;BME280;4665;51.368;6.782;2023-05-14T04:40:00;101476.34;;;9.25;100.00
9257;BME280;4665;51.368;6.782;2023-05-14T04:42:25;101483.81;;;9.31;100.00
9257;BME280;4665;51.368;6.782;2023-05-14T04:44:51;101481.88;;;9.33;100.00
9257;BME280;4665;51.368;6.782;2023-05-14T04:47:17;101471.34;;;9.32;100.00
9257;BME280;4665;51.368;6.782;2023-05-14T04:49:42;101477.28;;;9.35;100.00
9257;BME280;4665;51.368;6.782;2023-05-14T04:52:08;101470.91;;;9.26;100.00
9257;BME280;4665;51.368;6.782;2023-05-14T04:54:33;101488.03;;;9.34;100.00
9257;BME280;4665;51.368;6.782;2023-05-14T04:56:59;101480.50;;;9.39;100.00
9257;BME280;4665;51.368;6.782;2023-05-14T04:59:30;101491.56;;;9.44;100.00
9257;BME280;4665;51.368;6.782;2023-05-14T05:01:56;101489.06;;;9.42;100.00
9257;BME280;4665;51.368;6.782;2023-05-14T05:04:22;101499.16;;;9.48;100.00
9257;BME280;4665;51.368;6.782;2023-05-14T05:06:49;101493.59;;;9.52;100.00
9257;BME280;4665;51.368;6.782;2023-05-14T05:09:14;101498.78;;;9.53;100.00
9257;BME280;4665;51.368;6.782;2023-05-14T05:11:40;101490.56;;;9.56;100.00
9257;BME280;4665;51.368;6.782;2023-05-14T05:14:06;101488.34;;;9.61;100.00
9257;BME280;4665;51.368;6.782;2023-05-14T05:16:31;101499.16;;;9.69;100.00
9257;BME280;4665;51.368;6.782;2023-05-14T05:18:56;101496.25;;;9.73;100.00
9257;BME280;4665;51.368;6.782;2023-05-14T05:21:22;101495.53;;;9.71;100.00
9257;BME280;4665;51.368;6.782;2023-05-14T05:23:48;101498.53;;;9.77;100.00
9257;BME280;4665;51.368;6.782;2023-05-14T05:26:13;101493.88;;;9.79;100.00
9257;BME280;4665;51.368;6.782;2023-05-14T05:28:38;101493.38;;;9.85;100.00
9257;BME280;4665;51.368;6.782;2023-05-14T05:31:04;101503.72;;;9.88;100.00
9257;BME280;4665;51.368;6.782;2023-05-14T05:33:30;101503.59;;;9.90;100.00
9257;BME280;4665;51.368;6.782;2023-05-14T05:35:55;101501.66;;;9.92;100.00
9257;BME280;4665;51.368;6.782;2023-05-14T05:38:20;101502.94;;;9.98;100.00
9257;BME280;4665;51.368;6.782;2023-05-14T05:40:46;101511.13;;;10.06;100.00
9257;BME280;4665;51.368;6.782;2023-05-14T05:43:13;101512.13;;;10.15;100.00
9257;BME280;4665;51.368;6.782;2023-05-14T05:45:38;101497.44;;;10.20;100.00
9257;BME280;4665;51.368;6.782;2023-05-14T05:48:05;101496.19;;;10.24;100.00
9257;BME280;4665;51.368;6.782;2023-05-14T05:50:30;101501.19;;;10.39;100.00
9257;BME280;4665;51.368;6.782;2023-05-14T05:52:56;101489.56;;;10.40;100.00
9257;BME280;4665;51.368;6.782;2023-05-14T05:55:24;101499.41;;;10.49;100.00
9257;BME280;4665;51.368;6.782;2023-05-14T05:57:49;101498.81;;;10.55;100.00
9257;BME280;4665;51.368;6.782;2023-05-14T06:00:15;101502.22;;;10.67;100.00
9257;BME280;4665;51.368;6.782;2023-05-14T06:02:41;101501.69;;;10.73;100.00
9257;BME280;4665;51.368;6.782;2023-05-14T06:05:08;101502.09;;;10.88;100.00
9257;BME280;4665;51.368;6.782;2023-05-14T06:07:34;101506.75;;;10.95;100.00
9257;BME280;4665;51.368;6.782;2023-05-14T06:09:59;101502.56;;;11.03;100.00
9257;BME280;4665;51.368;6.782;2023-05-14T06:12:25;101502.13;;;11.17;100.00
9257;BME280;4665;51.368;6.782;2023-05-14T06:14:50;101510.09;;;11.36;100.00
9257;BME280;4665;51.368;6.782;2023-05-14T06:17:16;101502.94;;;11.47;100.00
9257;BME280;4665;51.368;6.782;2023-05-14T06:19:42;101495.22;;;11.53;100.00
9257;BME280;4665;51.368;6.782;2023-05-14T06:22:07;101505.25;;;11.69;100.00
9257;BME280;4665;51.368;6.782;2023-05-14T06:24:33;101500.75;;;11.79;100.00
9257;BME280;4665;51.368;6.782;2023-05-14T06:27:00;101505.25;;;11.89;100.00
9257;BME280;4665;51.368;6.782;2023-05-14T06:29:25;101505.31;;;12.07;100.00
9257;BME280;4665;51.368;6.782;2023-05-14T06:31:51;101503.28;;;12.28;100.00
9257;BME280;4665;51.368;6.782;2023-05-14T06:34:16;101501.94;;;12.42;100.00
9257;BME280;4665;51.368;6.782;2023-05-14T06:36:42;101490.94;;;12.45;100.00
9257;BME280;4665;51.368;6.782;2023-05-14T06:39:07;101513.50;;;12.60;100.00
9257;BME280;4665;51.368;6.782;2023-05-14T06:41:36;101508.78;;;12.72;100.00
9257;BME280;4665;51.368;6.782;2023-05-14T06:44:01;101493.28;;;12.76;100.00
9257;BME280;4665;51.368;6.782;2023-05-14T06:46:41;101499.22;;;12.88;100.00
9257;BME280;4665;51.368;6.782;2023-05-14T06:49:06;101497.19;;;12.99;100.00
9257;BME280;4665;51.368;6.782;2023-05-14T06:51:31;101490.53;;;13.03;100.00
9257;BME280;4665;51.368;6.782;2023-05-14T06:53:57;101489.00;;;13.19;100.00
9257;BME280;4665;51.368;6.782;2023-05-14T06:56:22;101490.06;;;13.26;100.00
9257;BME280;4665;51.368;6.782;2023-05-14T06:58:48;101468.66;;;13.26;100.00
9257;BME280;4665;51.368;6.782;2023-05-14T07:01:13;101487.88;;;13.39;100.00
9257;BME280;4665;51.368;6.782;2023-05-14T07:03:38;101473.16;;;13.43;100.00
9257;BME280;4665;51.368;6.782;2023-05-14T07:06:04;101478.56;;;13.52;100.00
9257;BME280;4665;51.368;6.782;2023-05-14T07:08:30;101473.59;;;13.57;100.00
9257;BME280;4665;51.368;6.782;2023-05-14T07:10:56;101473.84;;;13.45;100.00
9257;BME280;4665;51.368;6.782;2023-05-14T07:13:22;101465.34;;;13.50;100.00
9257;BME280;4665;51.368;6.782;2023-05-14T07:15:48;101482.56;;;13.74;100.00
9257;BME280;4665;51.368;6.782;2023-05-14T07:18:14;101473.22;;;13.78;100.00
9257;BME280;4665;51.368;6.782;2023-05-14T07:20:39;101463.31;;;13.70;100.00
9257;BME280;4665;51.368;6.782;2023-05-14T07:23:04;101482.25;;;13.77;100.00
9257;BME280;4665;51.368;6.782;2023-05-14T07:25:32;101486.81;;;13.84;100.00
9257;BME280;4665;51.368;6.782;2023-05-14T07:27:57;101472.63;;;13.92;100.00
9257;BME280;4665;51.368;6.782;2023-05-14T07:30:23;101482.22;;;14.03;100.00
9257;BME280;4665;51.368;6.782;2023-05-14T07:32:48;101485.31;;;14.16;100.00
9257;BME280;4665;51.368;6.782;2023-05-14T07:35:14;101453.44;;;14.13;100.00
9257;BME280;4665;51.368;6.782;2023-05-14T07:37:39;101465.06;;;14.22;100.00
9257;BME280;4665;51.368;6.782;2023-05-14T07:40:05;101455.34;;;14.29;100.00
9257;BME280;4665;51.368;6.782;2023-05-14T07:42:30;101450.72;;;14.39;100.00
9257;BME280;4665;51.368;6.782;2023-05-14T07:44:59;101443.50;;;14.48;100.00
9257;BME280;4665;51.368;6.782;2023-05-14T07:47:24;101438.72;;;14.68;100.00
9257;BME280;4665;51.368;6.782;2023-05-14T07:49:53;101440.56;;;14.76;100.00
9257;BME280;4665;51.368;6.782;2023-05-14T07:52:19;101433.03;;;14.79;100.00
9257;BME280;4665;51.368;6.782;2023-05-14T07:54:44;101439.25;;;14.96;100.00
9257;BME280;4665;51.368;6.782;2023-05-14T07:57:10;101445.47;;;15.05;100.00
9257;BME280;4665;51.368;6.782;2023-05-14T07:59:35;101457.53;;;15.25;100.00
9257;BME280;4665;51.368;6.782;2023-05-14T08:02:00;101449.31;;;15.35;100.00
9257;BME280;4665;51.368;6.782;2023-05-14T08:04:26;101440.75;;;15.40;100.00
9257;BME280;4665;51.368;6.782;2023-05-14T08:06:51;101454.28;;;15.54;100.00
9257;BME280;4665;51.368;6.782;2023-05-14T08:09:16;101446.22;;;15.63;100.00
9257;BME280;4665;51.368;6.782;2023-05-14T08:11:42;101443.38;;;15.72;100.00
9257;BME280;4665;51.368;6.782;2023-05-14T08:14:07;101448.91;;;15.79;100.00
9257;BME280;4665;51.368;6.782;2023-05-14T08:16:32;101446.53;;;15.92;100.00
9257;BME280;4665;51.368;6.782;2023-05-14T08:18:58;101436.44;;;15.94;100.00
9257;BME280;4665;51.368;6.782;2023-05-14T08:21:23;101452.09;;;16.22;100.00
9257;BME280;4665;51.368;6.782;2023-05-14T08:23:49;101441.66;;;16.27;100.00
9257;BME280;4665;51.368;6.782;2023-05-14T08:26:15;101450.09;;;16.47;100.00
9257;BME280;4665;51.368;6.782;2023-05-14T08:28:40;101449.13;;;16.71;100.00
9257;BME280;4665;51.368;6.782;2023-05-14T08:31:05;101440.53;;;16.76;100.00
9257;BME280;4665;51.368;6.782;2023-05-14T08:33:31;101442.88;;;16.79;100.00
9257;BME280;4665;51.368;6.782;2023-05-14T08:35:56;101424.72;;;16.73;100.00
9257;BME280;4665;51.368;6.782;2023-05-14T08:38:24;101436.28;;;16.81;100.00
9257;BME280;4665;51.368;6.782;2023-05-14T08:40:55;101428.19;;;16.90;100.00
9257;BME280;4665;51.368;6.782;2023-05-14T08:43:25;101428.47;;;16.95;100.00
9257;BME280;4665;51.368;6.782;2023-05-14T08:45:53;101441.50;;;17.06;100.00
9257;BME280;4665;51.368;6.782;2023-05-14T08:48:21;101436.84;;;17.15;100.00
9257;BME280;4665;51.368;6.782;2023-05-14T08:50:49;101426.84;;;17.23;100.00
9257;BME280;4665;51.368;6.782;2023-05-14T08:53:14;101430.22;;;17.40;100.00
9257;BME280;4665;51.368;6.782;2023-05-14T08:55:41;101427.56;;;17.55;100.00
9257;BME280;4665;51.368;6.782;2023-05-14T08:58:08;101429.31;;;17.63;100.00
9257;BME280;4665;51.368;6.782;2023-05-14T09:00:34;101425.78;;;17.62;100.00
9257;BME280;4665;51.368;6.782;2023-05-14T09:03:00;101429.13;;;17.64;100.00
9257;BME280;4665;51.368;6.782;2023-05-14T09:05:26;101415.00;;;17.62;100.00
9257;BME280;4665;51.368;6.782;2023-05-14T09:07:52;101421.31;;;17.70;100.00
9257;BME280;4665;51.368;6.782;2023-05-14T09:10:17;101415.03;;;17.92;100.00
9257;BME280;4665;51.368;6.782;2023-05-14T09:12:45;101410.34;;;18.01;100.00
9257;BME280;4665;51.368;6.782;2023-05-14T09:15:12;101401.66;;;17.99;100.00
9257;BME280;4665;51.368;6.782;2023-05-14T09:17:37;101390.66;;;18.15;100.00
9257;BME280;4665;51.368;6.782;2023-05-14T09:20:03;101395.66;;;18.40;100.00
9257;BME280;4665;51.368;6.782;2023-05-14T09:22:28;101381.09;;;18.34;99.91
9257;BME280;4665;51.368;6.782;2023-05-14T09:25:09;101402.81;;;18.47;100.00
9257;BME280;4665;51.368;6.782;2023-05-14T09:27:36;101405.44;;;18.41;100.00
9257;BME280;4665;51.368;6.782;2023-05-14T09:30:12;101401.19;;;18.32;100.00
9257;BME280;4665;51.368;6.782;2023-05-14T09:32:39;101396.22;;;18.14;100.00
9257;BME280;4665;51.368;6.782;2023-05-14T09:35:09;101409.16;;;18.03;100.00
9257;BME280;4665;51.368;6.782;2023-05-14T09:37:35;101388.88;;;18.07;100.00
9257;BME280;4665;51.368;6.782;2023-05-14T09:40:07;101396.22;;;18.14;100.00
9257;BME280;4665;51.368;6.782;2023-05-14T09:42:36;101402.75;;;18.04;100.00
9257;BME280;4665;51.368;6.782;2023-05-14T09:45:01;101393.00;;;17.88;100.00
9257;BME280;4665;51.368;6.782;2023-05-14T09:47:28;101402.03;;;17.81;100.00
9257;BME280;4665;51.368;6.782;2023-05-14T09:49:54;101392.44;;;17.78;100.00
9257;BME280;4665;51.368;6.782;2023-05-14T09:52:19;101372.09;;;17.61;100.00
9257;BME280;4665;51.368;6.782;2023-05-14T09:54:45;101391.44;;;17.64;100.00
9257;BME280;4665;51.368;6.782;2023-05-14T09:57:11;101391.22;;;17.66;100.00
9257;BME280;4665;51.368;6.782;2023-05-14T09:59:36;101394.78;;;17.66;100.00
9257;BME280;4665;51.368;6.782;2023-05-14T10:02:04;101386.69;;;17.66;100.00
9257;BME280;4665;51.368;6.782;2023-05-14T10:04:32;101388.25;;;17.76;100.00
9257;BME280;4665;51.368;6.782;2023-05-14T10:06:58;101375.34;;;17.86;100.00
9257;BME280;4665;51.368;6.782;2023-05-14T10:09:26;101364.44;;;18.09;83.51
9257;BME280;4665;51.368;6.782;2023-05-14T10:11:58;101364.84;;;18.27;85.43
9257;BME280;4665;51.368;6.782;2023-05-14T10:14:35;101368.75;;;18.68;82.58
9257;BME280;4665;51.368;6.782;2023-05-14T10:17:04;101365.16;;;19.04;85.46
9257;BME280;4665;51.368;6.782;2023-05-14T10:19:32;101368.56;;;19.19;81.88
9257;BME280;4665;51.368;6.782;2023-05-14T10:22:06;101363.66;;;19.29;90.30
9257;BME280;4665;51.368;6.782;2023-05-14T10:24:34;101363.50;;;19.38;80.71
9257;BME280;4665;51.368;6.782;2023-05-14T10:27:00;101364.13;;;19.40;74.32
9257;BME280;4665;51.368;6.782;2023-05-14T10:29:33;101359.25;;;19.57;75.74
9257;BME280;4665;51.368;6.782;2023-05-14T10:32:03;101356.56;;;19.63;75.84
9257;BME280;4665;51.368;6.782;2023-05-14T10:34:36;101353.75;;;19.71;76.75
9257;BME280;4665;51.368;6.782;2023-05-14T10:37:08;101352.66;;;19.66;69.55
9257;BME280;4665;51.368;6.782;2023-05-14T10:39:47;101355.88;;;19.48;77.75
9257;BME280;4665;51.368;6.782;2023-05-14T10:44:57;101355.53;;;18.95;58.65
9257;BME280;4665;51.368;6.782;2023-05-14T10:47:27;101350.97;;;18.95;56.30
9257;BME280;4665;51.368;6.782;2023-05-14T10:49:57;101348.31;;;19.02;52.11
9257;BME280;4665;51.368;6.782;2023-05-14T10:52:23;101326.91;;;19.00;50.10
9257;BME280;4665;51.368;6.782;2023-05-14T10:54:51;101340.34;;;19.22;57.26
9257;BME280;4665;51.368;6.782;2023-05-14T10:57:18;101329.56;;;19.28;65.40
9257;BME280;4665;51.368;6.782;2023-05-14T10:59:50;101340.94;;;19.52;63.89
9257;BME280;4665;51.368;6.782;2023-05-14T11:02:41;101338.44;;;19.50;57.39
9257;BME280;4665;51.368;6.782;2023-05-14T11:07:37;101326.00;;;19.63;53.30
9257;BME280;4665;51.368;6.782;2023-05-14T11:10:08;101325.69;;;19.79;60.27
9257;BME280;4665;51.368;6.782;2023-05-14T11:12:35;101320.34;;;19.92;53.51
9257;BME280;4665;51.368;6.782;2023-05-14T11:15:03;101320.78;;;19.96;52.95
9257;BME280;4665;51.368;6.782;2023-05-14T11:17:30;101316.84;;;19.99;53.39
9257;BME280;4665;51.368;6.782;2023-05-14T11:19:56;101314.09;;;19.92;45.27
9257;BME280;4665;51.368;6.782;2023-05-14T11:22:22;101322.00;;;19.87;47.65
9257;BME280;4665;51.368;6.782;2023-05-14T11:24:48;101312.41;;;19.91;45.67
9257;BME280;4665;51.368;6.782;2023-05-14T11:27:13;101311.84;;;20.02;48.62
9257;BME280;4665;51.368;6.782;2023-05-14T11:29:42;101314.16;;;20.05;44.97
9257;BME280;4665;51.368;6.782;2023-05-14T11:32:08;101300.19;;;20.02;45.50
9257;BME280;4665;51.368;6.782;2023-05-14T11:34:33;101289.19;;;20.03;46.29
9257;BME280;4665;51.368;6.782;2023-05-14T11:37:07;101285.44;;;20.17;45.51
9257;BME280;4665;51.368;6.782;2023-05-14T11:39:33;101288.78;;;20.20;47.97
9257;BME280;4665;51.368;6.782;2023-05-14T11:42:04;101292.09;;;20.15;51.03
9257;BME280;4665;51.368;6.782;2023-05-14T11:44:33;101288.31;;;20.03;53.86
9257;BME280;4665;51.368;6.782;2023-05-14T11:47:01;101287.25;;;19.90;48.95
9257;BME280;4665;51.368;6.782;2023-05-14T11:49:29;101291.16;;;19.74;43.71
9257;BME280;4665;51.368;6.782;2023-05-14T11:51:59;101298.38;;;19.67;40.79
9257;BME280;4665;51.368;6.782;2023-05-14T11:54:28;101287.31;;;19.55;41.53
9257;BME280;4665;51.368;6.782;2023-05-14T11:56:55;101289.19;;;19.55;42.53
9257;BME280;4665;51.368;6.782;2023-05-14T11:59:25;101278.63;;;19.67;41.38
9257;BME280;4665;51.368;6.782;2023-05-14T12:01:51;101277.44;;;19.69;43.70
9257;BME280;4665;51.368;6.782;2023-05-14T12:04:20;101277.44;;;19.69;43.50
9257;BME280;4665;51.368;6.782;2023-05-14T12:06:52;101274.34;;;19.79;46.97
9257;BME280;4665;51.368;6.782;2023-05-14T12:09:19;101260.84;;;19.86;47.79
9257;BME280;4665;51.368;6.782;2023-05-14T12:11:45;101272.94;;;19.96;45.77
9257;BME280;4665;51.368;6.782;2023-05-14T12:14:13;101272.34;;;20.08;45.15
9257;BME280;4665;51.368;6.782;2023-05-14T12:16:40;101267.97;;;20.13;44.88
9257;BME280;4665;51.368;6.782;2023-05-14T12:19:08;101275.06;;;20.14;41.71
9257;BME280;4665;51.368;6.782;2023-05-14T12:21:34;101272.94;;;20.16;44.12
9257;BME280;4665;51.368;6.782;2023-05-14T12:24:00;101270.25;;;20.16;47.65
9257;BME280;4665;51.368;6.782;2023-05-14T12:26:26;101259.88;;;20.20;47.69
9257;BME280;4665;51.368;6.782;2023-05-14T12:28:58;101249.06;;;20.27;43.52
9257;BME280;4665;51.368;6.782;2023-05-14T12:31:35;101259.03;;;20.33;45.74
9257;BME280;4665;51.368;6.782;2023-05-14T12:34:01;101263.84;;;20.31;44.93
9257;BME280;4665;51.368;6.782;2023-05-14T12:36:27;101251.53;;;20.28;45.87
9257;BME280;4665;51.368;6.782;2023-05-14T12:39:00;101249.25;;;20.32;43.51
9257;BME280;4665;51.368;6.782;2023-05-14T12:41:27;101244.66;;;20.39;46.60
9257;BME280;4665;51.368;6.782;2023-05-14T12:43:53;101250.28;;;20.51;46.17
9257;BME280;4665;51.368;6.782;2023-05-14T12:46:18;101245.09;;;20.56;44.28
9257;BME280;4665;51.368;6.782;2023-05-14T12:48:44;101240.13;;;20.59;42.73
9257;BME280;4665;51.368;6.782;2023-05-14T12:51:09;101239.69;;;20.56;44.87
9257;BME280;4665;51.368;6.782;2023-05-14T12:53:34;101234.69;;;20.46;45.11
9257;BME280;4665;51.368;6.782;2023-05-14T12:56:00;101236.34;;;20.34;46.46
9257;BME280;4665;51.368;6.782;2023-05-14T12:58:25;101230.94;;;20.34;44.45
9257;BME280;4665;51.368;6.782;2023-05-14T13:00:51;101223.47;;;20.29;45.50
9257;BME280;4665;51.368;6.782;2023-05-14T13:03:16;101223.47;;;20.29;47.19
9257;BME280;4665;51.368;6.782;2023-05-14T13:05:41;101223.47;;;20.29;45.67
9257;BME280;4665;51.368;6.782;2023-05-14T13:08:08;101224.91;;;20.18;46.25
9257;BME280;4665;51.368;6.782;2023-05-14T13:10:33;101219.47;;;20.12;50.27
9257;BME280;4665;51.368;6.782;2023-05-14T13:12:59;101220.13;;;20.01;49.99